createdAt,value
2022-11-28T00:03:24.947Z,28.93
2022-11-28T00:07:27.819Z,31.97
2022-11-28T00:11:28.068Z,29.17
2022-11-28T00:15:28.147Z,31.50
2022-11-28T00:19:29.162Z,32.07
2022-11-28T00:23:33.261Z,32.93
2022-11-28T00:27:33.299Z,34.53
2022-11-28T00:31:36.441Z,30.43
2022-11-28T00:35:36.549Z,32.97
2022-11-28T00:39:39.225Z,32.00
2022-11-28T00:43:40.435Z,32.70
2022-11-28T00:47:40.836Z,30.17
2022-11-28T00:51:41.330Z,31.07
2022-11-28T00:55:44.820Z,36.27
2022-11-28T00:59:44.905Z,33.47
2022-11-28T01:03:48.365Z,33.33
2022-11-28T01:07:48.471Z,35.67
2022-11-28T01:11:55.248Z,33.03
2022-11-28T01:15:55.460Z,36.20
2022-11-28T01:19:55.682Z,37.20
2022-11-28T01:23:56.001Z,33.17
2022-11-28T01:27:58.762Z,35.43
2022-11-28T01:31:59.069Z,33.20
2022-11-28T01:36:00.852Z,32.80
2022-11-28T01:40:00.910Z,34.07
2022-11-28T01:44:12.019Z,30.07
2022-11-28T01:48:18.605Z,30.13
2022-11-28T01:52:23.210Z,34.27
2022-11-28T01:56:29.567Z,33.87
2022-11-28T02:00:34.775Z,32.70
2022-11-28T02:04:37.092Z,29.23
2022-11-28T02:08:39.886Z,28.97
2022-11-28T02:13:05.835Z,30.30
2022-11-28T02:17:23.596Z,29.60
2022-11-28T02:21:52.192Z,28.47
2022-11-28T02:26:23.789Z,31.60
2022-11-28T02:30:28.957Z,27.37
2022-11-28T02:34:47.143Z,29.13
2022-11-28T02:39:07.374Z,26.03
2022-11-28T02:43:17.776Z,25.60
2022-11-28T02:47:28.652Z,25.63
2022-11-28T02:51:40.250Z,25.10
2022-11-28T02:55:43.489Z,22.67
2022-11-28T02:59:53.334Z,23.17
2022-11-28T03:04:27.801Z,23.83
2022-11-28T03:08:48.483Z,23.20
2022-11-28T03:13:00.036Z,22.73
2022-11-28T03:17:16.111Z,19.97
2022-11-28T03:21:28.724Z,22.90
2022-11-28T03:25:40.481Z,21.70
2022-11-28T03:29:46.058Z,20.43
2022-11-28T03:33:51.926Z,18.37
2022-11-28T03:37:57.719Z,19.17
2022-11-28T03:42:07.737Z,17.43
2022-11-28T03:46:14.320Z,16.53
2022-11-28T03:50:21.298Z,18.13
2022-11-28T03:54:31.223Z,15.93
2022-11-28T03:58:40.642Z,17.20
2022-11-28T04:02:51.270Z,17.27
2022-11-28T04:07:00.445Z,18.13
2022-11-28T04:11:11.744Z,17.90
2022-11-28T04:15:22.378Z,15.07
2022-11-28T04:19:33.727Z,18.00
2022-11-28T04:23:38.262Z,17.33
2022-11-28T04:27:43.132Z,16.57
2022-11-28T04:31:49.403Z,19.30
2022-11-28T04:35:54.443Z,16.93
2022-11-28T04:39:59.387Z,15.97
2022-11-28T04:44:07.792Z,17.83
2022-11-28T04:48:10.771Z,16.77
2022-11-28T04:52:20.659Z,16.50
2022-11-28T04:56:27.556Z,16.23
2022-11-28T05:00:29.909Z,14.63
2022-11-28T05:04:33.169Z,13.70
2022-11-28T05:08:33.397Z,13.20
2022-11-28T05:12:33.425Z,14.50
2022-11-28T05:16:33.766Z,14.27
2022-11-28T05:20:36.830Z,11.80
2022-11-28T05:24:37.266Z,11.90
2022-11-28T05:28:37.601Z,13.30
2022-11-28T05:32:37.705Z,11.37
2022-11-28T05:36:40.484Z,14.70
2022-11-28T05:40:44.242Z,11.23
2022-11-28T05:44:44.454Z,15.13
2022-11-28T05:48:44.589Z,13.33
2022-11-28T05:52:47.291Z,14.67
2022-11-28T05:56:47.838Z,16.63
2022-11-28T06:00:47.871Z,14.87
2022-11-28T06:04:48.052Z,16.87
2022-11-28T06:08:53.534Z,13.60
2022-11-28T06:12:53.580Z,14.23
2022-11-28T06:16:53.905Z,14.10
2022-11-28T06:20:54.401Z,14.17
2022-11-28T06:24:57.048Z,12.30
2022-11-28T06:28:58.306Z,15.17
2022-11-28T06:32:58.342Z,13.50
2022-11-28T06:36:58.487Z,14.77
2022-11-28T06:41:06.328Z,16.57
2022-11-28T06:45:07.793Z,16.67
2022-11-28T06:49:07.904Z,14.83
2022-11-28T06:53:07.995Z,14.27
2022-11-28T06:57:10.755Z,15.23
2022-11-28T07:01:14.196Z,12.33
2022-11-28T07:05:16.594Z,14.67
2022-11-28T07:09:16.885Z,13.93
2022-11-28T07:13:19.875Z,12.97
2022-11-28T07:17:19.994Z,14.77
2022-11-28T07:21:21.031Z,12.37
2022-11-28T07:25:21.384Z,13.17
2022-11-28T07:29:27.508Z,18.20
2022-11-28T07:33:27.706Z,16.73
2022-11-28T07:37:27.931Z,14.43
2022-11-28T07:41:29.359Z,14.73
2022-11-28T07:45:58.902Z,13.67
2022-11-28T07:49:56.157Z,18.20
2022-11-28T07:53:56.654Z,14.63
2022-11-28T07:57:56.951Z,16.20
2022-11-28T08:01:59.771Z,19.80
2022-11-28T08:06:04.356Z,17.63
2022-11-28T08:10:04.856Z,17.07
2022-11-28T08:14:06.911Z,16.23
2022-11-28T08:18:13.087Z,13.47
2022-11-28T08:22:13.210Z,14.83
2022-11-28T08:26:16.632Z,19.67
2022-11-28T08:30:17.879Z,16.53
2022-11-28T08:34:20.687Z,17.17
2022-11-28T08:38:21.049Z,20.93
2022-11-28T08:42:21.145Z,25.80
2022-11-28T08:46:24.448Z,15.03
2022-11-28T08:50:30.245Z,16.67
2022-11-28T08:54:30.333Z,20.27
2022-11-28T08:58:30.427Z,17.47
2022-11-28T09:02:30.533Z,18.60
2022-11-28T09:06:33.239Z,19.40
2022-11-28T09:10:33.349Z,19.07
2022-11-28T09:14:33.561Z,22.30
2022-11-28T09:18:34.481Z,18.57
2022-11-28T09:22:37.779Z,23.80
2022-11-28T09:26:38.066Z,19.97
2022-11-28T09:30:38.749Z,19.17
2022-11-28T09:34:39.220Z,22.33
2022-11-28T09:38:43.364Z,20.23
2022-11-28T09:42:47.028Z,18.30
2022-11-28T09:46:51.675Z,22.77
2022-11-28T09:50:59.090Z,20.07
2022-11-28T09:55:17.860Z,21.57
2022-11-28T09:59:27.347Z,19.77
2022-11-28T10:03:47.221Z,22.07
2022-11-28T10:08:06.858Z,18.27
2022-11-28T10:12:35.039Z,21.10
2022-11-28T10:16:50.205Z,17.27
2022-11-28T10:20:56.499Z,17.80
2022-11-28T10:25:03.393Z,16.47
2022-11-28T10:29:22.107Z,18.03
2022-11-28T10:33:31.602Z,16.47
2022-11-28T10:37:35.216Z,15.80
2022-11-28T10:41:43.143Z,15.37
2022-11-28T10:45:57.958Z,13.30
2022-11-28T10:50:07.015Z,16.53
2022-11-28T10:54:26.170Z,21.23
2022-11-28T10:58:35.506Z,17.20
2022-11-28T11:02:45.705Z,17.40
2022-11-28T11:07:06.921Z,17.33
2022-11-28T11:11:14.553Z,17.10
2022-11-28T11:15:26.529Z,21.40
2022-11-28T11:19:34.140Z,16.53
2022-11-28T11:23:38.255Z,18.27
2022-11-28T11:27:41.392Z,17.50
2022-11-28T11:31:52.515Z,16.37
2022-11-28T11:35:55.638Z,19.80
2022-11-28T11:39:56.234Z,18.33
2022-11-28T11:43:56.373Z,18.93
2022-11-28T11:47:56.920Z,20.47
2022-11-28T11:52:04.281Z,15.90
2022-11-28T11:56:06.957Z,21.43
2022-11-28T12:00:17.962Z,16.27
2022-11-28T12:04:45.462Z,15.63
2022-11-28T12:08:55.081Z,17.23
2022-11-28T12:12:56.312Z,16.73
2022-11-28T12:22:14.584Z,20.93
2022-11-28T12:26:31.486Z,15.93
2022-11-28T12:30:52.940Z,15.90
2022-11-28T12:35:14.132Z,17.40
2022-11-28T12:39:42.091Z,16.17
2022-11-28T12:44:05.925Z,23.53
2022-11-28T12:48:28.888Z,18.57
2022-11-28T12:52:48.743Z,19.03
2022-11-28T12:57:01.470Z,18.03
2022-11-28T13:01:30.267Z,18.07
2022-11-28T13:06:02.013Z,18.77
2022-11-28T13:10:16.557Z,15.37
2022-11-28T13:14:32.625Z,16.60
2022-11-28T13:18:43.976Z,17.27
2022-11-28T13:23:02.355Z,18.27
2022-11-28T13:27:14.860Z,15.97
2022-11-28T13:31:25.937Z,14.87
2022-11-28T13:35:31.921Z,18.60
2022-11-28T13:39:42.285Z,20.57
2022-11-28T13:43:53.509Z,17.37
2022-11-28T13:47:55.712Z,15.80
2022-11-28T13:52:45.476Z,16.97
2022-11-28T13:56:47.864Z,16.33
2022-11-28T14:01:09.774Z,18.97
2022-11-28T14:05:31.159Z,16.37
2022-11-28T14:09:53.471Z,18.03
2022-11-28T14:14:27.512Z,18.70
2022-11-28T14:18:56.808Z,20.13
2022-11-28T14:23:21.892Z,24.47
2022-11-28T14:27:30.921Z,16.90
2022-11-28T14:31:37.361Z,18.97
2022-11-28T14:36:25.099Z,24.17
2022-11-28T14:41:11.887Z,27.40
2022-11-28T14:45:52.626Z,26.93
2022-11-28T14:50:28.096Z,22.03
2022-11-28T14:54:32.474Z,26.37
2022-11-28T14:58:32.655Z,20.67
2022-11-28T15:03:15.191Z,20.47
2022-11-28T15:07:31.653Z,28.37
2022-11-28T15:11:58.881Z,25.60
2022-11-28T15:16:00.207Z,26.47
2022-11-28T15:20:10.669Z,39.33
2022-11-28T15:24:28.950Z,22.63
2022-11-28T15:28:32.543Z,22.47
2022-11-28T15:32:34.726Z,16.90
2022-11-28T15:36:46.486Z,16.70
2022-11-28T15:40:55.269Z,14.73
2022-11-28T15:45:14.453Z,15.27
2022-11-28T15:49:32.067Z,13.37
2022-11-28T15:53:35.815Z,15.57
2022-11-28T15:57:36.548Z,18.27
2022-11-28T16:01:37.485Z,16.70
2022-11-28T16:05:37.762Z,16.83
2022-11-28T16:09:40.720Z,18.43
2022-11-28T16:13:43.947Z,16.07
2022-11-28T16:17:44.745Z,17.00
2022-11-28T16:21:56.790Z,15.43
2022-11-28T16:26:09.391Z,19.60
2022-11-28T16:30:39.108Z,16.93
2022-11-28T16:34:50.874Z,19.80
2022-11-28T16:38:54.549Z,20.57
2022-11-28T16:43:02.979Z,24.13
2022-11-28T16:47:04.410Z,21.47
2022-11-28T16:51:41.653Z,25.10
2022-11-28T16:55:47.393Z,24.87
2022-11-28T16:59:52.090Z,21.50
2022-11-28T17:03:55.559Z,22.77
2022-11-28T17:07:56.738Z,30.23
2022-11-28T17:12:02.127Z,22.03
2022-11-28T17:16:04.775Z,21.47
2022-11-28T17:20:05.560Z,25.60
2022-11-28T17:24:06.359Z,25.33
2022-11-28T17:28:06.779Z,26.87
2022-11-28T17:32:12.283Z,28.60
2022-11-28T17:36:14.450Z,27.07
2022-11-28T17:40:27.560Z,26.70
2022-11-28T17:44:31.856Z,27.33
2022-11-28T17:48:35.700Z,33.30
2022-11-28T17:52:35.807Z,27.47
2022-11-28T17:56:36.119Z,31.20
2022-11-28T18:00:36.383Z,32.93
2022-11-28T18:04:40.471Z,31.03
2022-11-28T18:08:41.237Z,25.77
2022-11-28T18:12:41.516Z,31.77
2022-11-28T18:16:43.995Z,30.43
2022-11-28T18:20:47.132Z,29.77
2022-11-28T18:24:47.804Z,27.33
2022-11-28T18:28:48.180Z,32.57
2022-11-28T18:32:48.674Z,28.77
2022-11-28T18:36:58.432Z,28.27
2022-11-28T18:41:07.958Z,28.33
2022-11-28T18:45:09.876Z,31.00
2022-11-28T18:49:10.712Z,29.10
2022-11-28T18:53:13.647Z,29.70
2022-11-28T18:57:14.536Z,29.60
2022-11-28T19:01:17.377Z,30.37
2022-11-28T19:05:17.812Z,29.57
2022-11-28T19:09:22.314Z,34.87
2022-11-28T19:13:22.498Z,36.67
2022-11-28T19:17:22.642Z,32.53
2022-11-28T19:21:28.346Z,32.80
2022-11-28T19:25:32.550Z,34.87
2022-11-28T19:29:32.711Z,33.97
2022-11-28T19:33:32.926Z,33.90
2022-11-28T19:37:33.611Z,32.03
2022-11-28T19:41:37.084Z,34.87
2022-11-28T19:45:37.218Z,31.40
2022-11-28T19:49:38.269Z,32.30
2022-11-28T19:53:40.955Z,29.13
2022-11-28T19:57:43.885Z,32.87
2022-11-28T20:01:44.516Z,27.90
2022-11-28T20:05:46.237Z,27.43
2022-11-28T20:09:47.015Z,29.97
2022-11-28T20:13:51.750Z,25.97
2022-11-28T20:17:52.365Z,26.03
2022-11-28T20:21:52.818Z,26.23
2022-11-28T20:25:53.646Z,31.40
2022-11-28T20:29:56.435Z,29.23
2022-11-28T20:33:57.481Z,30.30
2022-11-28T20:37:57.814Z,25.37
2022-11-28T20:41:57.949Z,29.23
2022-11-28T20:46:05.881Z,29.07
2022-11-28T20:50:06.556Z,28.70
2022-11-28T20:54:08.860Z,30.43
2022-11-28T20:58:09.006Z,30.60
2022-11-28T21:02:13.992Z,31.07
2022-11-28T21:06:14.623Z,29.77
2022-11-28T21:10:14.830Z,31.87
2022-11-28T21:14:15.274Z,29.13
2022-11-28T21:18:18.932Z,29.57
2022-11-28T21:22:19.041Z,28.97
2022-11-28T21:26:28.798Z,28.07
2022-11-28T21:30:30.447Z,31.33
2022-11-28T21:34:33.904Z,27.37
2022-11-28T21:38:34.552Z,24.10
2022-11-28T21:42:35.181Z,27.30
2022-11-28T21:46:35.330Z,25.37
2022-11-28T21:50:38.115Z,27.83
2022-11-28T21:54:38.148Z,23.17
2022-11-28T21:58:38.598Z,25.37
2022-11-28T22:02:38.773Z,23.17
2022-11-28T22:06:41.918Z,26.97
2022-11-28T22:10:42.012Z,24.43
2022-11-28T22:14:42.223Z,26.70
2022-11-28T22:18:42.341Z,25.17
2022-11-28T22:22:45.023Z,27.23
2022-11-28T22:26:46.214Z,34.83
2022-11-28T22:30:46.576Z,29.93
2022-11-28T22:34:47.266Z,23.73
2022-11-28T22:38:52.976Z,25.33
2022-11-28T22:42:59.747Z,29.63
2022-11-28T22:47:00.052Z,26.73
2022-11-28T22:51:00.464Z,30.53
2022-11-28T22:55:03.247Z,28.93
2022-11-28T22:59:05.113Z,29.57
2022-11-28T23:03:06.429Z,28.13
2022-11-28T23:07:06.887Z,29.13
2022-11-28T23:11:15.687Z,27.60
2022-11-28T23:15:16.503Z,28.20
2022-11-28T23:19:20.007Z,30.00
2022-11-28T23:23:20.101Z,31.23
2022-11-28T23:27:22.806Z,30.67
2022-11-28T23:31:26.853Z,26.33
2022-11-28T23:35:28.005Z,31.40
2022-11-28T23:39:28.798Z,29.93
2022-11-28T23:43:39.372Z,30.37
2022-11-28T23:47:39.470Z,26.33
2022-11-28T23:51:40.136Z,28.30
2022-11-28T23:55:40.307Z,28.00
2022-11-28T23:59:42.965Z,27.87
